sensor_id;sensor_type;location;lat;lon;timestamp;P1;durP1;ratioP1;P2;durP2;ratioP2
69954;SDS011;57279;55.912;37.490;2023-05-10T00:00:43;22.75;;;8.05;;
69954;SDS011;57279;55.912;37.490;2023-05-10T00:05:35;26.80;;;9.00;;
69954;SDS011;57279;55.912;37.490;2023-05-10T00:08:00;33.65;;;9.55;;
69954;SDS011;57279;55.912;37.490;2023-05-10T00:12:51;25.05;;;8.35;;
69954;SDS011;57279;55.912;37.490;2023-05-10T00:17:42;27.98;;;9.25;;
69954;SDS011;57279;55.912;37.490;2023-05-10T00:20:08;33.83;;;9.82;;
69954;SDS011;57279;55.912;37.490;2023-05-10T00:22:34;24.55;;;8.98;;
69954;SDS011;57279;55.912;37.490;2023-05-10T00:25:00;29.23;;;9.18;;
69954;SDS011;57279;55.912;37.490;2023-05-10T00:29:52;27.55;;;8.57;;
69954;SDS011;57279;55.912;37.490;2023-05-10T00:32:17;27.27;;;8.40;;
69954;SDS011;57279;55.912;37.490;2023-05-10T00:34:43;25.25;;;7.82;;
69954;SDS011;57279;55.912;37.490;2023-05-10T00:39:34;39.30;;;9.18;;
69954;SDS011;57279;55.912;37.490;2023-05-10T00:44:26;23.75;;;7.63;;
69954;SDS011;57279;55.912;37.490;2023-05-10T00:46:53;29.52;;;8.75;;
69954;SDS011;57279;55.912;37.490;2023-05-10T00:49:19;24.48;;;7.50;;
69954;SDS011;57279;55.912;37.490;2023-05-10T00:51:45;25.17;;;7.85;;
69954;SDS011;57279;55.912;37.490;2023-05-10T00:56:37;26.90;;;6.70;;
69954;SDS011;57279;55.912;37.490;2023-05-10T00:59:03;33.38;;;7.28;;
69954;SDS011;57279;55.912;37.490;2023-05-10T01:03:55;25.92;;;6.45;;
69954;SDS011;57279;55.912;37.490;2023-05-10T01:08:46;20.92;;;7.18;;
69954;SDS011;57279;55.912;37.490;2023-05-10T01:13:39;27.85;;;7.78;;
69954;SDS011;57279;55.912;37.490;2023-05-10T01:16:07;31.95;;;8.25;;
69954;SDS011;57279;55.912;37.490;2023-05-10T01:18:38;23.10;;;7.60;;
69954;SDS011;57279;55.912;37.490;2023-05-10T01:21:27;25.25;;;7.10;;
69954;SDS011;57279;55.912;37.490;2023-05-10T01:24:31;19.33;;;6.43;;
69954;SDS011;57279;55.912;37.490;2023-05-10T01:41:14;21.98;;;8.70;;
69954;SDS011;57279;55.912;37.490;2023-05-10T01:46:38;23.95;;;6.93;;
69954;SDS011;57279;55.912;37.490;2023-05-10T01:49:24;28.63;;;7.63;;
69954;SDS011;57279;55.912;37.490;2023-05-10T01:51:53;25.98;;;7.35;;
69954;SDS011;57279;55.912;37.490;2023-05-10T01:54:24;20.95;;;6.70;;
69954;SDS011;57279;55.912;37.490;2023-05-10T01:56:52;19.95;;;6.75;;
69954;SDS011;57279;55.912;37.490;2023-05-10T01:59:25;27.23;;;7.25;;
69954;SDS011;57279;55.912;37.490;2023-05-10T02:01:55;18.83;;;6.53;;
69954;SDS011;57279;55.912;37.490;2023-05-10T02:04:24;21.63;;;6.05;;
69954;SDS011;57279;55.912;37.490;2023-05-10T02:06:51;18.23;;;6.25;;
69954;SDS011;57279;55.912;37.490;2023-05-10T02:09:18;18.58;;;6.65;;
69954;SDS011;57279;55.912;37.490;2023-05-10T02:11:45;19.67;;;6.43;;
69954;SDS011;57279;55.912;37.490;2023-05-10T02:14:14;17.85;;;6.05;;
69954;SDS011;57279;55.912;37.490;2023-05-10T02:16:42;20.08;;;7.38;;
69954;SDS011;57279;55.912;37.490;2023-05-10T02:19:08;20.38;;;6.30;;
69954;SDS011;57279;55.912;37.490;2023-05-10T02:21:56;21.55;;;6.50;;
69954;SDS011;57279;55.912;37.490;2023-05-10T02:24:24;17.35;;;6.78;;
69954;SDS011;57279;55.912;37.490;2023-05-10T02:26:53;18.05;;;6.10;;
69954;SDS011;57279;55.912;37.490;2023-05-10T02:29:19;19.35;;;6.43;;
69954;SDS011;57279;55.912;37.490;2023-05-10T02:31:46;19.35;;;7.22;;
69954;SDS011;57279;55.912;37.490;2023-05-10T02:34:13;26.05;;;7.82;;
69954;SDS011;57279;55.912;37.490;2023-05-10T02:36:39;21.08;;;6.70;;
69954;SDS011;57279;55.912;37.490;2023-05-10T02:39:07;16.40;;;5.10;;
69954;SDS011;57279;55.912;37.490;2023-05-10T02:41:37;18.17;;;6.13;;
69954;SDS011;57279;55.912;37.490;2023-05-10T02:44:07;19.95;;;7.30;;
69954;SDS011;57279;55.912;37.490;2023-05-10T02:46:34;15.35;;;6.18;;
69954;SDS011;57279;55.912;37.490;2023-05-10T02:49:01;19.58;;;6.85;;
69954;SDS011;57279;55.912;37.490;2023-05-10T02:51:28;18.92;;;6.57;;
69954;SDS011;57279;55.912;37.490;2023-05-10T02:53:57;18.35;;;6.72;;
69954;SDS011;57279;55.912;37.490;2023-05-10T02:56:31;18.75;;;7.22;;
69954;SDS011;57279;55.912;37.490;2023-05-10T02:58:59;23.10;;;7.53;;
69954;SDS011;57279;55.912;37.490;2023-05-10T03:01:25;17.70;;;6.40;;
69954;SDS011;57279;55.912;37.490;2023-05-10T03:03:51;19.60;;;8.00;;
69954;SDS011;57279;55.912;37.490;2023-05-10T03:08:42;15.75;;;6.07;;
69954;SDS011;57279;55.912;37.490;2023-05-10T03:13:51;15.15;;;5.65;;
69954;SDS011;57279;55.912;37.490;2023-05-10T03:16:23;19.15;;;5.75;;
69954;SDS011;57279;55.912;37.490;2023-05-10T03:18:59;16.80;;;5.38;;
69954;SDS011;57279;55.912;37.490;2023-05-10T03:21:31;15.30;;;5.75;;
69954;SDS011;57279;55.912;37.490;2023-05-10T03:24:08;15.70;;;5.47;;
69954;SDS011;57279;55.912;37.490;2023-05-10T03:26:37;16.38;;;6.18;;
69954;SDS011;57279;55.912;37.490;2023-05-10T03:29:12;15.15;;;6.03;;
69954;SDS011;57279;55.912;37.490;2023-05-10T03:31:41;15.55;;;4.90;;
69954;SDS011;57279;55.912;37.490;2023-05-10T03:34:07;14.90;;;4.80;;
69954;SDS011;57279;55.912;37.490;2023-05-10T03:36:33;16.30;;;5.10;;
69954;SDS011;57279;55.912;37.490;2023-05-10T03:38:59;16.33;;;4.78;;
69954;SDS011;57279;55.912;37.490;2023-05-10T03:41:26;15.50;;;4.78;;
69954;SDS011;57279;55.912;37.490;2023-05-10T03:43:52;14.63;;;4.25;;
69954;SDS011;57279;55.912;37.490;2023-05-10T03:46:18;15.15;;;4.45;;
69954;SDS011;57279;55.912;37.490;2023-05-10T03:48:44;16.23;;;4.10;;
69954;SDS011;57279;55.912;37.490;2023-05-10T03:51:09;12.40;;;4.60;;
69954;SDS011;57279;55.912;37.490;2023-05-10T03:53:35;15.85;;;4.32;;
69954;SDS011;57279;55.912;37.490;2023-05-10T03:56:01;13.77;;;3.95;;
69954;SDS011;57279;55.912;37.490;2023-05-10T03:58:27;15.00;;;4.30;;
69954;SDS011;57279;55.912;37.490;2023-05-10T04:00:52;14.73;;;4.15;;
69954;SDS011;57279;55.912;37.490;2023-05-10T04:03:19;12.48;;;3.78;;
69954;SDS011;57279;55.912;37.490;2023-05-10T04:05:45;13.38;;;4.10;;
69954;SDS011;57279;55.912;37.490;2023-05-10T04:08:11;11.50;;;3.63;;
69954;SDS011;57279;55.912;37.490;2023-05-10T04:10:37;15.50;;;4.65;;
69954;SDS011;57279;55.912;37.490;2023-05-10T04:13:02;13.57;;;3.97;;
69954;SDS011;57279;55.912;37.490;2023-05-10T04:15:28;14.70;;;4.40;;
69954;SDS011;57279;55.912;37.490;2023-05-10T04:17:54;13.80;;;3.80;;
69954;SDS011;57279;55.912;37.490;2023-05-10T04:20:20;11.13;;;3.60;;
69954;SDS011;57279;55.912;37.490;2023-05-10T04:22:45;10.88;;;3.30;;
69954;SDS011;57279;55.912;37.490;2023-05-10T04:25:11;11.52;;;3.72;;
69954;SDS011;57279;55.912;37.490;2023-05-10T04:27:37;17.70;;;3.28;;
69954;SDS011;57279;55.912;37.490;2023-05-10T04:30:02;12.07;;;3.20;;
69954;SDS011;57279;55.912;37.490;2023-05-10T04:32:29;13.57;;;3.08;;
69954;SDS011;57279;55.912;37.490;2023-05-10T04:34:55;12.15;;;3.50;;
69954;SDS011;57279;55.912;37.490;2023-05-10T04:37:21;14.30;;;3.53;;
69954;SDS011;57279;55.912;37.490;2023-05-10T04:39:48;9.30;;;2.83;;
69954;SDS011;57279;55.912;37.490;2023-05-10T04:42:13;16.35;;;2.67;;
69954;SDS011;57279;55.912;37.490;2023-05-10T04:44:40;12.57;;;3.20;;
69954;SDS011;57279;55.912;37.490;2023-05-10T04:47:06;13.35;;;2.85;;
69954;SDS011;57279;55.912;37.490;2023-05-10T04:49:31;11.65;;;2.63;;
69954;SDS011;57279;55.912;37.490;2023-05-10T04:51:57;11.85;;;2.15;;
69954;SDS011;57279;55.912;37.490;2023-05-10T04:54:23;12.57;;;2.08;;
69954;SDS011;57279;55.912;37.490;2023-05-10T04:56:49;8.00;;;1.92;;
69954;SDS011;57279;55.912;37.490;2023-05-10T04:59:14;8.68;;;1.80;;
69954;SDS011;57279;55.912;37.490;2023-05-10T05:01:40;8.52;;;1.77;;
69954;SDS011;57279;55.912;37.490;2023-05-10T05:04:06;12.75;;;2.55;;
69954;SDS011;57279;55.912;37.490;2023-05-10T05:06:32;9.13;;;2.17;;
69954;SDS011;57279;55.912;37.490;2023-05-10T05:08:57;6.65;;;1.63;;
69954;SDS011;57279;55.912;37.490;2023-05-10T05:11:23;9.73;;;2.00;;
69954;SDS011;57279;55.912;37.490;2023-05-10T05:13:49;8.70;;;1.90;;
69954;SDS011;57279;55.912;37.490;2023-05-10T05:16:14;9.68;;;2.10;;
69954;SDS011;57279;55.912;37.490;2023-05-10T05:18:40;8.98;;;2.15;;
69954;SDS011;57279;55.912;37.490;2023-05-10T05:21:18;6.78;;;2.00;;
69954;SDS011;57279;55.912;37.490;2023-05-10T05:23:45;10.70;;;2.28;;
69954;SDS011;57279;55.912;37.490;2023-05-10T05:26:10;10.20;;;2.28;;
69954;SDS011;57279;55.912;37.490;2023-05-10T05:28:36;10.98;;;2.15;;
69954;SDS011;57279;55.912;37.490;2023-05-10T05:31:03;7.68;;;2.22;;
69954;SDS011;57279;55.912;37.490;2023-05-10T05:33:29;8.65;;;2.30;;
69954;SDS011;57279;55.912;37.490;2023-05-10T05:35:55;9.25;;;2.30;;
69954;SDS011;57279;55.912;37.490;2023-05-10T05:38:21;10.65;;;2.33;;
69954;SDS011;57279;55.912;37.490;2023-05-10T05:40:46;8.52;;;2.20;;
69954;SDS011;57279;55.912;37.490;2023-05-10T05:43:12;10.68;;;2.40;;
69954;SDS011;57279;55.912;37.490;2023-05-10T05:45:38;11.35;;;2.22;;
69954;SDS011;57279;55.912;37.490;2023-05-10T05:48:04;10.40;;;2.85;;
69954;SDS011;57279;55.912;37.490;2023-05-10T05:50:30;10.13;;;2.55;;
69954;SDS011;57279;55.912;37.490;2023-05-10T05:52:55;9.52;;;2.42;;
69954;SDS011;57279;55.912;37.490;2023-05-10T05:55:22;12.80;;;2.70;;
69954;SDS011;57279;55.912;37.490;2023-05-10T05:57:49;10.55;;;2.33;;
69954;SDS011;57279;55.912;37.490;2023-05-10T06:00:15;12.10;;;2.17;;
69954;SDS011;57279;55.912;37.490;2023-05-10T06:02:41;11.65;;;2.17;;
69954;SDS011;57279;55.912;37.490;2023-05-10T06:05:07;12.73;;;2.58;;
69954;SDS011;57279;55.912;37.490;2023-05-10T06:07:33;15.20;;;2.60;;
69954;SDS011;57279;55.912;37.490;2023-05-10T06:09:58;9.18;;;2.42;;
69954;SDS011;57279;55.912;37.490;2023-05-10T06:12:24;14.55;;;2.42;;
69954;SDS011;57279;55.912;37.490;2023-05-10T06:14:50;9.90;;;2.92;;
69954;SDS011;57279;55.912;37.490;2023-05-10T06:17:15;15.55;;;3.35;;
69954;SDS011;57279;55.912;37.490;2023-05-10T06:19:41;11.68;;;2.63;;
69954;SDS011;57279;55.912;37.490;2023-05-10T06:22:06;11.77;;;2.40;;
69954;SDS011;57279;55.912;37.490;2023-05-10T06:24:32;9.25;;;2.53;;
69954;SDS011;57279;55.912;37.490;2023-05-10T06:26:58;12.77;;;2.70;;
69954;SDS011;57279;55.912;37.490;2023-05-10T06:29:25;9.35;;;2.08;;
69954;SDS011;57279;55.912;37.490;2023-05-10T06:31:51;10.45;;;2.63;;
69954;SDS011;57279;55.912;37.490;2023-05-10T06:34:17;9.00;;;2.30;;
69954;SDS011;57279;55.912;37.490;2023-05-10T06:36:42;11.50;;;2.60;;
69954;SDS011;57279;55.912;37.490;2023-05-10T06:39:08;8.35;;;2.55;;
69954;SDS011;57279;55.912;37.490;2023-05-10T06:41:34;13.63;;;2.47;;
69954;SDS011;57279;55.912;37.490;2023-05-10T06:43:59;15.35;;;2.58;;
69954;SDS011;57279;55.912;37.490;2023-05-10T06:46:25;9.30;;;2.10;;
69954;SDS011;57279;55.912;37.490;2023-05-10T06:48:51;12.75;;;3.33;;
69954;SDS011;57279;55.912;37.490;2023-05-10T06:51:16;11.60;;;2.40;;
69954;SDS011;57279;55.912;37.490;2023-05-10T06:53:42;11.45;;;2.28;;
69954;SDS011;57279;55.912;37.490;2023-05-10T06:56:08;9.27;;;2.30;;
69954;SDS011;57279;55.912;37.490;2023-05-10T06:58:34;21.33;;;2.58;;
69954;SDS011;57279;55.912;37.490;2023-05-10T07:01:03;8.55;;;2.10;;
69954;SDS011;57279;55.912;37.490;2023-05-10T07:03:30;9.13;;;2.33;;
69954;SDS011;57279;55.912;37.490;2023-05-10T07:06:02;10.57;;;2.22;;
69954;SDS011;57279;55.912;37.490;2023-05-10T07:08:32;8.60;;;2.10;;
69954;SDS011;57279;55.912;37.490;2023-05-10T07:11:04;11.90;;;2.05;;
69954;SDS011;57279;55.912;37.490;2023-05-10T07:13:32;10.90;;;2.25;;
69954;SDS011;57279;55.912;37.490;2023-05-10T07:16:00;9.27;;;3.00;;
69954;SDS011;57279;55.912;37.490;2023-05-10T07:18:27;8.32;;;1.90;;
69954;SDS011;57279;55.912;37.490;2023-05-10T07:20:54;10.20;;;2.25;;
69954;SDS011;57279;55.912;37.490;2023-05-10T07:23:20;15.55;;;2.40;;
69954;SDS011;57279;55.912;37.490;2023-05-10T07:25:47;8.70;;;2.20;;
69954;SDS011;57279;55.912;37.490;2023-05-10T07:28:14;10.57;;;2.63;;
69954;SDS011;57279;55.912;37.490;2023-05-10T07:30:44;14.82;;;2.55;;
69954;SDS011;57279;55.912;37.490;2023-05-10T07:33:12;14.82;;;2.95;;
69954;SDS011;57279;55.912;37.490;2023-05-10T07:35:39;10.85;;;2.50;;
69954;SDS011;57279;55.912;37.490;2023-05-10T07:38:05;9.73;;;2.90;;
69954;SDS011;57279;55.912;37.490;2023-05-10T07:40:31;14.35;;;3.42;;
69954;SDS011;57279;55.912;37.490;2023-05-10T07:42:57;13.15;;;2.65;;
69954;SDS011;57279;55.912;37.490;2023-05-10T07:45:23;11.77;;;3.00;;
69954;SDS011;57279;55.912;37.490;2023-05-10T07:47:49;8.45;;;2.33;;
69954;SDS011;57279;55.912;37.490;2023-05-10T07:50:15;7.90;;;2.13;;
69954;SDS011;57279;55.912;37.490;2023-05-10T07:52:40;8.68;;;2.22;;
69954;SDS011;57279;55.912;37.490;2023-05-10T07:55:07;9.90;;;2.20;;
69954;SDS011;57279;55.912;37.490;2023-05-10T07:57:33;9.10;;;2.42;;
69954;SDS011;57279;55.912;37.490;2023-05-10T07:59:59;8.60;;;2.35;;
69954;SDS011;57279;55.912;37.490;2023-05-10T08:02:25;7.50;;;1.90;;
69954;SDS011;57279;55.912;37.490;2023-05-10T08:04:51;7.90;;;1.90;;
69954;SDS011;57279;55.912;37.490;2023-05-10T08:07:17;8.27;;;1.92;;
69954;SDS011;57279;55.912;37.490;2023-05-10T08:09:42;8.85;;;1.83;;
69954;SDS011;57279;55.912;37.490;2023-05-10T08:12:08;8.45;;;1.77;;
69954;SDS011;57279;55.912;37.490;2023-05-10T08:14:34;8.18;;;1.60;;
69954;SDS011;57279;55.912;37.490;2023-05-10T08:17:02;9.35;;;1.83;;
69954;SDS011;57279;55.912;37.490;2023-05-10T08:19:28;9.73;;;1.42;;
69954;SDS011;57279;55.912;37.490;2023-05-10T08:21:54;8.27;;;2.33;;
69954;SDS011;57279;55.912;37.490;2023-05-10T08:24:44;7.68;;;1.75;;
69954;SDS011;57279;55.912;37.490;2023-05-10T08:27:10;7.93;;;1.67;;
69954;SDS011;57279;55.912;37.490;2023-05-10T08:29:37;10.23;;;2.00;;
69954;SDS011;57279;55.912;37.490;2023-05-10T08:32:03;7.03;;;1.90;;
69954;SDS011;57279;55.912;37.490;2023-05-10T08:34:28;8.40;;;1.75;;
69954;SDS011;57279;55.912;37.490;2023-05-10T08:36:56;7.68;;;1.95;;
69954;SDS011;57279;55.912;37.490;2023-05-10T08:39:22;9.75;;;1.00;;
69954;SDS011;57279;55.912;37.490;2023-05-10T08:41:48;4.68;;;1.00;;
69954;SDS011;57279;55.912;37.490;2023-05-10T08:44:17;5.95;;;1.10;;
69954;SDS011;57279;55.912;37.490;2023-05-10T08:46:45;10.45;;;1.35;;
69954;SDS011;57279;55.912;37.490;2023-05-10T08:49:13;6.38;;;1.33;;
69954;SDS011;57279;55.912;37.490;2023-05-10T08:51:53;7.63;;;1.20;;
69954;SDS011;57279;55.912;37.490;2023-05-10T08:54:21;6.47;;;1.25;;
69954;SDS011;57279;55.912;37.490;2023-05-10T08:56:47;6.35;;;1.33;;
69954;SDS011;57279;55.912;37.490;2023-05-10T08:59:13;6.90;;;1.30;;
69954;SDS011;57279;55.912;37.490;2023-05-10T09:01:39;6.72;;;1.30;;
69954;SDS011;57279;55.912;37.490;2023-05-10T09:04:07;5.65;;;1.27;;
69954;SDS011;57279;55.912;37.490;2023-05-10T09:06:32;9.77;;;1.40;;
69954;SDS011;57279;55.912;37.490;2023-05-10T09:08:59;6.57;;;1.20;;
69954;SDS011;57279;55.912;37.490;2023-05-10T09:11:25;6.82;;;1.27;;
69954;SDS011;57279;55.912;37.490;2023-05-10T09:13:54;8.82;;;1.50;;
69954;SDS011;57279;55.912;37.490;2023-05-10T09:16:21;7.05;;;1.38;;
69954;SDS011;57279;55.912;37.490;2023-05-10T09:18:47;9.35;;;1.55;;
69954;SDS011;57279;55.912;37.490;2023-05-10T09:21:14;14.55;;;1.67;;
69954;SDS011;57279;55.912;37.490;2023-05-10T09:23:44;7.07;;;1.50;;
69954;SDS011;57279;55.912;37.490;2023-05-10T09:26:10;6.32;;;1.42;;
69954;SDS011;57279;55.912;37.490;2023-05-10T09:28:55;9.32;;;1.48;;
69954;SDS011;57279;55.912;37.490;2023-05-10T09:31:43;7.65;;;1.30;;
69954;SDS011;57279;55.912;37.490;2023-05-10T09:34:17;6.00;;;1.25;;
69954;SDS011;57279;55.912;37.490;2023-05-10T09:36:50;7.40;;;1.33;;
69954;SDS011;57279;55.912;37.490;2023-05-10T09:39:17;7.93;;;1.80;;
69954;SDS011;57279;55.912;37.490;2023-05-10T09:41:43;13.88;;;1.30;;
69954;SDS011;57279;55.912;37.490;2023-05-10T09:44:09;10.63;;;1.48;;
69954;SDS011;57279;55.912;37.490;2023-05-10T09:46:35;6.53;;;1.52;;
69954;SDS011;57279;55.912;37.490;2023-05-10T09:49:02;15.57;;;1.90;;
69954;SDS011;57279;55.912;37.490;2023-05-10T09:51:27;6.90;;;1.15;;
69954;SDS011;57279;55.912;37.490;2023-05-10T09:54:15;8.43;;;1.58;;
69954;SDS011;57279;55.912;37.490;2023-05-10T09:56:41;6.88;;;1.60;;
69954;SDS011;57279;55.912;37.490;2023-05-10T09:59:09;8.52;;;1.52;;
69954;SDS011;57279;55.912;37.490;2023-05-10T10:01:37;7.55;;;1.30;;
69954;SDS011;57279;55.912;37.490;2023-05-10T10:04:06;6.38;;;1.42;;
69954;SDS011;57279;55.912;37.490;2023-05-10T10:06:35;6.10;;;1.52;;
69954;SDS011;57279;55.912;37.490;2023-05-10T10:09:05;7.00;;;1.40;;
69954;SDS011;57279;55.912;37.490;2023-05-10T10:11:33;10.25;;;2.05;;
69954;SDS011;57279;55.912;37.490;2023-05-10T10:14:03;7.72;;;1.85;;
69954;SDS011;57279;55.912;37.490;2023-05-10T10:16:31;8.00;;;1.65;;
69954;SDS011;57279;55.912;37.490;2023-05-10T10:18:58;9.15;;;1.45;;
69954;SDS011;57279;55.912;37.490;2023-05-10T10:21:24;8.82;;;1.50;;
69954;SDS011;57279;55.912;37.490;2023-05-10T10:23:50;7.78;;;1.58;;
69954;SDS011;57279;55.912;37.490;2023-05-10T10:26:17;12.15;;;1.83;;
69954;SDS011;57279;55.912;37.490;2023-05-10T10:28:48;7.28;;;1.40;;
69954;SDS011;57279;55.912;37.490;2023-05-10T10:31:27;9.07;;;1.45;;
69954;SDS011;57279;55.912;37.490;2023-05-10T10:36:45;7.68;;;1.42;;
69954;SDS011;57279;55.912;37.490;2023-05-10T10:39:12;8.63;;;1.58;;
69954;SDS011;57279;55.912;37.490;2023-05-10T10:42:44;8.07;;;1.55;;
69954;SDS011;57279;55.912;37.490;2023-05-10T10:45:12;7.05;;;1.40;;
69954;SDS011;57279;55.912;37.490;2023-05-10T10:47:38;7.18;;;1.50;;
69954;SDS011;57279;55.912;37.490;2023-05-10T10:50:05;6.88;;;1.52;;
69954;SDS011;57279;55.912;37.490;2023-05-10T10:52:33;7.03;;;1.17;;
69954;SDS011;57279;55.912;37.490;2023-05-10T10:57:32;7.45;;;1.17;;
69954;SDS011;57279;55.912;37.490;2023-05-10T11:00:24;8.25;;;1.48;;
69954;SDS011;57279;55.912;37.490;2023-05-10T11:02:58;7.32;;;1.42;;
69954;SDS011;57279;55.912;37.490;2023-05-10T11:08:07;12.20;;;1.52;;
69954;SDS011;57279;55.912;37.490;2023-05-10T11:10:37;7.13;;;1.42;;
69954;SDS011;57279;55.912;37.490;2023-05-10T11:13:07;6.78;;;1.35;;
69954;SDS011;57279;55.912;37.490;2023-05-10T11:15:35;6.05;;;1.35;;
69954;SDS011;57279;55.912;37.490;2023-05-10T11:18:17;5.53;;;1.40;;
69954;SDS011;57279;55.912;37.490;2023-05-10T11:20:50;14.10;;;1.58;;
69954;SDS011;57279;55.912;37.490;2023-05-10T11:23:16;7.65;;;1.10;;
69954;SDS011;57279;55.912;37.490;2023-05-10T11:29:02;14.55;;;1.48;;
69954;SDS011;57279;55.912;37.490;2023-05-10T11:31:30;6.53;;;1.30;;
69954;SDS011;57279;55.912;37.490;2023-05-10T11:33:56;8.25;;;1.98;;
69954;SDS011;57279;55.912;37.490;2023-05-10T11:36:28;6.65;;;1.63;;
69954;SDS011;57279;55.912;37.490;2023-05-10T11:38:56;6.82;;;1.58;;
69954;SDS011;57279;55.912;37.490;2023-05-10T11:41:22;6.80;;;1.35;;
69954;SDS011;57279;55.912;37.490;2023-05-10T11:43:50;9.60;;;1.80;;
69954;SDS011;57279;55.912;37.490;2023-05-10T11:46:18;6.45;;;1.45;;
69954;SDS011;57279;55.912;37.490;2023-05-10T11:48:45;6.25;;;1.30;;
69954;SDS011;57279;55.912;37.490;2023-05-10T11:51:14;7.45;;;1.40;;
69954;SDS011;57279;55.912;37.490;2023-05-10T11:53:40;6.47;;;1.40;;
69954;SDS011;57279;55.912;37.490;2023-05-10T11:56:06;7.80;;;1.85;;
69954;SDS011;57279;55.912;37.490;2023-05-10T11:58:36;6.35;;;1.70;;
69954;SDS011;57279;55.912;37.490;2023-05-10T12:01:28;8.68;;;1.73;;
69954;SDS011;57279;55.912;37.490;2023-05-10T12:03:55;9.45;;;1.52;;
69954;SDS011;57279;55.912;37.490;2023-05-10T12:06:29;6.43;;;1.42;;
69954;SDS011;57279;55.912;37.490;2023-05-10T12:08:56;8.38;;;1.75;;
69954;SDS011;57279;55.912;37.490;2023-05-10T12:11:26;6.35;;;1.50;;
69954;SDS011;57279;55.912;37.490;2023-05-10T12:13:53;7.15;;;1.35;;
69954;SDS011;57279;55.912;37.490;2023-05-10T12:16:21;9.05;;;1.38;;
69954;SDS011;57279;55.912;37.490;2023-05-10T12:18:49;8.23;;;1.33;;
69954;SDS011;57279;55.912;37.490;2023-05-10T12:21:16;5.85;;;1.20;;
69954;SDS011;57279;55.912;37.490;2023-05-10T12:23:42;6.55;;;1.42;;
69954;SDS011;57279;55.912;37.490;2023-05-10T12:26:11;8.13;;;1.55;;
69954;SDS011;57279;55.912;37.490;2023-05-10T12:31:52;6.60;;;1.10;;
69954;SDS011;57279;55.912;37.490;2023-05-10T12:34:25;9.25;;;1.63;;
69954;SDS011;57279;55.912;37.490;2023-05-10T12:36:58;11.35;;;1.65;;
69954;SDS011;57279;55.912;37.490;2023-05-10T12:39:24;5.75;;;1.23;;
69954;SDS011;57279;55.912;37.490;2023-05-10T12:41:50;16.92;;;1.98;;
69954;SDS011;57279;55.912;37.490;2023-05-10T12:44:16;5.82;;;1.25;;
69954;SDS011;57279;55.912;37.490;2023-05-10T12:46:42;6.78;;;1.40;;
69954;SDS011;57279;55.912;37.490;2023-05-10T12:49:08;9.07;;;1.40;;
69954;SDS011;57279;55.912;37.490;2023-05-10T12:51:34;8.65;;;1.45;;
69954;SDS011;57279;55.912;37.490;2023-05-10T12:54:01;6.20;;;1.40;;
69954;SDS011;57279;55.912;37.490;2023-05-10T12:56:29;10.27;;;1.70;;
69954;SDS011;57279;55.912;37.490;2023-05-10T13:00:09;6.38;;;1.52;;
69954;SDS011;57279;55.912;37.490;2023-05-10T13:02:36;6.95;;;1.42;;
69954;SDS011;57279;55.912;37.490;2023-05-10T13:05:01;14.93;;;1.73;;
69954;SDS011;57279;55.912;37.490;2023-05-10T13:07:28;8.25;;;2.00;;
69954;SDS011;57279;55.912;37.490;2023-05-10T13:09:54;7.43;;;1.63;;
69954;SDS011;57279;55.912;37.490;2023-05-10T13:12:20;6.00;;;1.65;;
69954;SDS011;57279;55.912;37.490;2023-05-10T13:14:45;9.57;;;2.17;;
69954;SDS011;57279;55.912;37.490;2023-05-10T13:17:11;8.00;;;1.65;;
69954;SDS011;57279;55.912;37.490;2023-05-10T13:19:37;8.52;;;2.05;;
69954;SDS011;57279;55.912;37.490;2023-05-10T13:22:02;8.68;;;2.70;;
69954;SDS011;57279;55.912;37.490;2023-05-10T13:24:28;9.30;;;1.80;;
69954;SDS011;57279;55.912;37.490;2023-05-10T13:26:54;6.60;;;1.80;;
69954;SDS011;57279;55.912;37.490;2023-05-10T13:29:19;7.97;;;2.13;;
69954;SDS011;57279;55.912;37.490;2023-05-10T13:31:46;7.05;;;1.63;;
69954;SDS011;57279;55.912;37.490;2023-05-10T13:34:37;7.35;;;1.38;;
69954;SDS011;57279;55.912;37.490;2023-05-10T13:37:03;6.63;;;1.77;;
69954;SDS011;57279;55.912;37.490;2023-05-10T13:39:29;8.30;;;1.73;;
69954;SDS011;57279;55.912;37.490;2023-05-10T13:41:58;6.50;;;1.67;;
69954;SDS011;57279;55.912;37.490;2023-05-10T13:44:24;13.15;;;1.58;;
69954;SDS011;57279;55.912;37.490;2023-05-10T13:46:50;7.50;;;1.58;;
69954;SDS011;57279;55.912;37.490;2023-05-10T13:49:15;7.60;;;1.90;;
69954;SDS011;57279;55.912;37.490;2023-05-10T13:51:41;6.75;;;1.75;;
69954;SDS011;57279;55.912;37.490;2023-05-10T13:54:08;10.43;;;3.35;;
69954;SDS011;57279;55.912;37.490;2023-05-10T13:56:35;9.70;;;1.98;;
69954;SDS011;57279;55.912;37.490;2023-05-10T13:59:26;6.88;;;1.75;;
69954;SDS011;57279;55.912;37.490;2023-05-10T14:01:52;8.15;;;1.77;;
69954;SDS011;57279;55.912;37.490;2023-05-10T14:04:18;9.93;;;2.53;;
69954;SDS011;57279;55.912;37.490;2023-05-10T14:06:44;8.15;;;2.15;;
69954;SDS011;57279;55.912;37.490;2023-05-10T14:09:09;8.82;;;1.85;;
69954;SDS011;57279;55.912;37.490;2023-05-10T14:11:35;7.35;;;1.90;;
69954;SDS011;57279;55.912;37.490;2023-05-10T14:14:01;9.80;;;1.77;;
69954;SDS011;57279;55.912;37.490;2023-05-10T14:16:26;11.48;;;1.85;;
69954;SDS011;57279;55.912;37.490;2023-05-10T14:18:52;8.90;;;1.63;;
69954;SDS011;57279;55.912;37.490;2023-05-10T14:21:18;8.65;;;2.42;;
69954;SDS011;57279;55.912;37.490;2023-05-10T14:23:43;8.80;;;2.00;;
69954;SDS011;57279;55.912;37.490;2023-05-10T14:26:09;9.70;;;1.95;;
69954;SDS011;57279;55.912;37.490;2023-05-10T14:28:35;13.18;;;2.72;;
69954;SDS011;57279;55.912;37.490;2023-05-10T14:31:01;9.75;;;1.40;;
69954;SDS011;57279;55.912;37.490;2023-05-10T14:33:26;7.50;;;1.58;;
69954;SDS011;57279;55.912;37.490;2023-05-10T14:35:53;10.57;;;2.20;;
69954;SDS011;57279;55.912;37.490;2023-05-10T14:38:20;11.43;;;2.05;;
69954;SDS011;57279;55.912;37.490;2023-05-10T14:40:45;12.93;;;2.20;;
69954;SDS011;57279;55.912;37.490;2023-05-10T14:43:11;7.45;;;1.58;;
69954;SDS011;57279;55.912;37.490;2023-05-10T14:45:37;10.85;;;1.92;;
69954;SDS011;57279;55.912;37.490;2023-05-10T14:48:02;8.52;;;1.70;;
69954;SDS011;57279;55.912;37.490;2023-05-10T14:50:30;10.02;;;1.92;;
69954;SDS011;57279;55.912;37.490;2023-05-10T14:56:00;7.20;;;1.80;;
69954;SDS011;57279;55.912;37.490;2023-05-10T14:58:29;13.38;;;2.35;;
69954;SDS011;57279;55.912;37.490;2023-05-10T15:00:56;8.90;;;2.10;;
69954;SDS011;57279;55.912;37.490;2023-05-10T15:03:22;10.82;;;2.22;;
69954;SDS011;57279;55.912;37.490;2023-05-10T15:05:47;22.20;;;2.42;;
69954;SDS011;57279;55.912;37.490;2023-05-10T15:08:13;14.77;;;2.03;;
69954;SDS011;57279;55.912;37.490;2023-05-10T15:10:39;12.07;;;1.90;;
69954;SDS011;57279;55.912;37.490;2023-05-10T15:13:05;17.83;;;1.77;;
69954;SDS011;57279;55.912;37.490;2023-05-10T15:15:31;12.20;;;2.17;;
69954;SDS011;57279;55.912;37.490;2023-05-10T15:17:57;10.27;;;1.90;;
69954;SDS011;57279;55.912;37.490;2023-05-10T15:20:22;10.73;;;1.55;;
69954;SDS011;57279;55.912;37.490;2023-05-10T15:22:48;10.95;;;1.83;;
69954;SDS011;57279;55.912;37.490;2023-05-10T15:25:13;10.20;;;2.10;;
69954;SDS011;57279;55.912;37.490;2023-05-10T15:27:40;8.70;;;1.70;;
69954;SDS011;57279;55.912;37.490;2023-05-10T15:30:09;9.25;;;1.77;;
69954;SDS011;57279;55.912;37.490;2023-05-10T15:32:35;15.95;;;2.40;;
69954;SDS011;57279;55.912;37.490;2023-05-10T15:35:01;14.75;;;2.10;;
69954;SDS011;57279;55.912;37.490;2023-05-10T15:37:28;11.32;;;1.80;;